Time;durP1;ratioP1;P1;durP2;ratioP2;P2;SDS_P1;SDS_P2;PMS_P1;PMS_P2;Temp;Humidity;BMP_temperature;BMP_pressure;BME280_temperature;BME280_humidity;BME280_pressure;Samples;Min_cycle;Max_cycle;Signal;HPM_P1;HPM_P2
2019/09/21 00:00:33;;;;;;;6.2;3;;;;;;;8.93;79.26172;943.9731;;;;
2019/09/21 00:03:01;;;;;;;9.6;3.3;;;;;;;8.89;78.99316;943.9793;;;;
2019/09/21 00:05:28;;;;;;;7.2;3.3;;;;;;;8.32;81.37695;943.9578;;;;
2019/09/21 00:08:00;;;;;;;7.7;3.1;;;;;;;8.37;81.3291;943.8943;;;;
2019/09/21 00:10:24;;;;;;;5.5;2.9;;;;;;;8.39;81.23145;943.8411;;;;
2019/09/21 00:12:56;;;;;;;6.8;2.9;;;;;;;8.44;80.96777;943.829;;;;
2019/09/21 00:15:34;;;;;;;6.6;3;;;;;;;8.44;80.96875;943.8092;;;;
2019/09/21 00:18:08;;;;;;;9.7;3.1;;;;;;;8.71;80.30176;943.9197;;;;
2019/09/21 00:22:56;;;;;;;10.9;3.2;;;;;;;7.78;83.80469;943.8506;;;;
2019/09/21 00:25:12;;;;;;;7.4;3.5;;;;;;;7.63;84.68359;943.8005;;;;
2019/09/21 00:27:39;;;;;;;7.5;3;;;;;;;7.6;85.26563;943.7762;;;;
2019/09/21 00:30:05;;;;;;;7.7;3.2;;;;;;;7.57;85.19043;943.7704;;;;
2019/09/21 00:32:32;;;;;;;7.3;3.5;;;;;;;7.71;85.10742;943.6514;;;;
2019/09/21 00:35:00;;;;;;;8.4;3.6;;;;;;;8.03;83.18359;943.6554;;;;
2019/09/21 00:37:25;;;;;;;6.4;3.3;;;;;;;;;;;;;
2019/09/21 00:39:50;;;;;;;6.5;3.4;;;;;;;;;;;;;
2019/09/21 00:42:18;;;;;;;8;3.5;;;;;;;;;;;;;
2019/09/21 00:44:41;;;;;;;8.8;3.4;;;;;;;;;;;;;
2019/09/21 00:47:06;;;;;;;7.6;3.4;;;;;;;;;;;;;
2019/09/21 00:49:31;;;;;;;8.3;3.2;;;;;;;;;;;;;
2019/09/21 00:51:56;;;;;;;7.5;3.2;;;;;;;;;;;;;
2019/09/21 00:54:21;;;;;;;7.9;3.3;;;;;;;;;;;;;
2019/09/21 00:56:45;;;;;;;9.2;3.7;;;;;;;;;;;;;
2019/09/21 00:59:14;;;;;;;8.2;3.5;;;;;;;;;;;;;
2019/09/21 01:01:42;;;;;;;8.1;3.4;;;;;;;;;;;;;
2019/09/21 01:04:04;;;;;;;7.8;3.9;;;;;;;;;;;;;
2019/09/21 01:06:30;;;;;;;11.4;3.6;;;;;;;;;;;;;
2019/09/21 01:08:53;;;;;;;10.6;3.7;;;;;;;;;;;;;
2019/09/21 01:11:20;;;;;;;7.6;3.4;;;;;;;;;;;;;
2019/09/21 01:13:43;;;;;;;6.8;3.4;;;;;;;;;;;;;
2019/09/21 01:16:08;;;;;;;8.3;3.7;;;;;;;;;;;;;
2019/09/21 01:18:34;;;;;;;8.4;3.5;;;;;;;;;;;;;
2019/09/21 01:21:05;;;;;;;9.5;4;;;;;;;;;;;;;
2019/09/21 01:23:26;;;;;;;10.3;3.7;;;;;;;;;;;;;
2019/09/21 01:25:52;;;;;;;6.6;3.5;;;;;;;;;;;;;
2019/09/21 01:28:22;;;;;;;8.1;3.2;;;;;;;;;;;;;
2019/09/21 01:30:42;;;;;;;7.2;3.4;;;;;;;;;;;;;
2019/09/21 01:33:07;;;;;;;11.9;3.9;;;;;;;;;;;;;
2019/09/21 01:35:32;;;;;;;6.8;3.2;;;;;;;;;;;;;
2019/09/21 01:38:01;;;;;;;7.1;3.4;;;;;;;;;;;;;
2019/09/21 01:40:26;;;;;;;8.2;3.5;;;;;;;;;;;;;
2019/09/21 01:42:50;;;;;;;7.8;3.4;;;;;;;;;;;;;
2019/09/21 01:45:17;;;;;;;6.7;3;;;;;;;;;;;;;
2019/09/21 01:47:46;;;;;;;8.4;3.2;;;;;;;;;;;;;
2019/09/21 01:50:14;;;;;;;7;3.1;;;;;;;;;;;;;
2019/09/21 01:52:42;;;;;;;6.8;2.9;;;;;;;;;;;;;
2019/09/21 01:55:10;;;;;;;7.7;2.9;;;;;;;;;;;;;
2019/09/21 01:57:34;;;;;;;7.7;3;;;;;;;;;;;;;
2019/09/21 01:59:56;;;;;;;7.2;2.9;;;;;;;;;;;;;
2019/09/21 02:02:22;;;;;;;7.7;3.1;;;;;;;;;;;;;
2019/09/21 02:04:49;;;;;;;7.7;3.2;;;;;;;;;;;;;
2019/09/21 02:07:14;;;;;;;6.2;3.1;;;;;;;;;;;;;
2019/09/21 02:09:38;;;;;;;6.2;3.3;;;;;;;;;;;;;
2019/09/21 02:12:03;;;;;;;7.6;3.5;;;;;;;;;;;;;
2019/09/21 02:14:30;;;;;;;7.2;3.5;;;;;;;;;;;;;
2019/09/21 02:16:54;;;;;;;7.6;3.3;;;;;;;;;;;;;
2019/09/21 02:19:19;;;;;;;8.4;3.3;;;;;;;;;;;;;
2019/09/21 02:21:43;;;;;;;8.1;3.4;;;;;;;;;;;;;
2019/09/21 02:24:13;;;;;;;6.3;3.5;;;;;;;;;;;;;
2019/09/21 02:26:36;;;;;;;7.3;3.3;;;;;;;;;;;;;
2019/09/21 02:29:01;;;;;;;7.2;3.8;;;;;;;;;;;;;
2019/09/21 02:31:26;;;;;;;8.8;3.3;;;;;;;;;;;;;
2019/09/21 02:33:53;;;;;;;7.1;3.3;;;;;;;;;;;;;
2019/09/21 02:36:39;;;;;;;7.3;3.3;;;;;;;;;;;;;
2019/09/21 02:39:08;;;;;;;6.5;3.1;;;;;;;;;;;;;
2019/09/21 02:41:33;;;;;;;5;3;;;;;;;;;;;;;
2019/09/21 02:43:58;;;;;;;12.3;3.6;;;;;;;;;;;;;
2019/09/21 02:46:24;;;;;;;6.6;3.4;;;;;;;;;;;;;
2019/09/21 02:48:48;;;;;;;5.2;3.1;;;;;;;;;;;;;
2019/09/21 02:51:15;;;;;;;5.6;3.2;;;;;;;;;;;;;
2019/09/21 02:53:41;;;;;;;10.5;3.2;;;;;;;;;;;;;
2019/09/21 02:56:07;;;;;;;7.2;3.4;;;;;;;;;;;;;
2019/09/21 02:58:31;;;;;;;7.3;3.4;;;;;;;;;;;;;
2019/09/21 03:00:56;;;;;;;7.3;3.6;;;;;;;;;;;;;
2019/09/21 03:03:21;;;;;;;8.8;3.6;;;;;;;;;;;;;
2019/09/21 03:05:47;;;;;;;7.6;3.5;;;;;;;;;;;;;
2019/09/21 03:08:12;;;;;;;6.6;3.6;;;;;;;;;;;;;
2019/09/21 03:10:36;;;;;;;9.7;4;;;;;;;;;;;;;
2019/09/21 03:13:01;;;;;;;8.3;3.8;;;;;;;;;;;;;
2019/09/21 03:15:29;;;;;;;8.9;3.8;;;;;;;;;;;;;
2019/09/21 03:17:52;;;;;;;7.6;3.5;;;;;;;;;;;;;
2019/09/21 03:20:18;;;;;;;9.3;3.7;;;;;;;;;;;;;
2019/09/21 03:22:43;;;;;;;7.6;3.2;;;;;;;;;;;;;
2019/09/21 03:25:13;;;;;;;7.2;3.6;;;;;;;;;;;;;
2019/09/21 03:27:36;;;;;;;8.4;4.3;;;;;;;;;;;;;
2019/09/21 03:30:02;;;;;;;7.5;4;;;;;;;;;;;;;
2019/09/21 03:32:27;;;;;;;8;4.2;;;;;;;;;;;;;
2019/09/21 03:34:52;;;;;;;7.8;4.1;;;;;;;;;;;;;
2019/09/21 03:37:21;;;;;;;8.7;4;;;;;;;;;;;;;
2019/09/21 03:39:46;;;;;;;8.9;4;;;;;;;;;;;;;
2019/09/21 03:42:11;;;;;;;9.8;4;;;;;;;;;;;;;
2019/09/21 03:44:34;;;;;;;9.4;4.3;;;;;;;;;;;;;
2019/09/21 03:47:00;;;;;;;8;4.2;;;;;;;;;;;;;
2019/09/21 03:49:25;;;;;;;9.6;3.9;;;;;;;;;;;;;
2019/09/21 03:51:51;;;;;;;7;3.7;;;;;;;;;;;;;
2019/09/21 03:54:15;;;;;;;8.9;3.8;;;;;;;;;;;;;
2019/09/21 03:56:40;;;;;;;6.4;3.5;;;;;;;;;;;;;
2019/09/21 03:59:09;;;;;;;7.3;4.1;;;;;;;;;;;;;
2019/09/21 04:05:10;;;;;;;11.4;4.3;;;;;;;7.12;85.71484;942.2558;;;;
2019/09/21 04:07:36;;;;;;;10.3;5.3;;;;;;;6.63;88.40039;942.2693;;;;
2019/09/21 04:10:02;;;;;;;8.2;4.9;;;;;;;6.78;87.71973;942.2272;;;;
2019/09/21 04:12:26;;;;;;;9.8;5;;;;;;;6.63;88.44434;942.2319;;;;
2019/09/21 04:15:00;;;;;;;7.7;4.1;;;;;;;6.92;87.12207;942.2314;;;;
2019/09/21 04:17:30;;;;;;;7.3;4.2;;;;;;;6.6;88.57617;942.1906;;;;
2019/09/21 04:20:02;;;;;;;8.5;4.2;;;;;;;6.49;89.94141;942.2534;;;;
2019/09/21 04:22:26;;;;;;;9.6;3.8;;;;;;;6.87;87.64551;942.2277;;;;
2019/09/21 04:25:01;;;;;;;9;4.1;;;;;;;6.69;88.10645;942.165;;;;
2019/09/21 04:27:24;;;;;;;8.8;4;;;;;;;6.79;88.25098;942.2795;;;;
2019/09/21 04:29:53;;;;;;;9.6;4.5;;;;;;;6.53;89.76074;942.1725;;;;
2019/09/21 04:32:17;;;;;;;7.2;3.9;;;;;;;6.74;88.32129;942.1951;;;;
2019/09/21 04:34:42;;;;;;;8.6;4.1;;;;;;;6.81;87.8252;942.1844;;;;
2019/09/21 04:37:13;;;;;;;9.3;4;;;;;;;6.78;87.97754;942.2128;;;;
2019/09/21 04:39:44;;;;;;;7.8;4;;;;;;;6.75;87.80273;942.2175;;;;
2019/09/21 04:42:10;;;;;;;8.4;3.9;;;;;;;6.78;87.55859;942.2159;;;;
2019/09/21 04:44:43;;;;;;;7;3.6;;;;;;;6.71;87.7041;942.2371;;;;
2019/09/21 04:47:16;;;;;;;6.7;3.8;;;;;;;6.52;88.47852;942.2617;;;;
2019/09/21 04:49:47;;;;;;;8;4;;;;;;;6.49;89.74121;942.2308;;;;
2019/09/21 04:52:13;;;;;;;6.7;3.8;;;;;;;6.55;89.01758;942.2318;;;;
2019/09/21 04:54:40;;;;;;;9.2;4.5;;;;;;;6.59;88.99121;942.2875;;;;
2019/09/21 04:57:05;;;;;;;7.7;3.8;;;;;;;6.51;89.34766;942.3198;;;;
2019/09/21 04:59:30;;;;;;;7.2;4.1;;;;;;;6.52;89.40625;942.3494;;;;
2019/09/21 05:02:00;;;;;;;8.8;3.7;;;;;;;6.84;87.75293;942.3242;;;;
2019/09/21 05:04:25;;;;;;;7.8;3.9;;;;;;;6.82;87.33008;942.2563;;;;
2019/09/21 05:06:56;;;;;;;9.5;3.6;;;;;;;6.69;87.94824;942.2925;;;;
2019/09/21 05:09:28;;;;;;;11;4.2;;;;;;;6.54;88.74414;942.2497;;;;
2019/09/21 05:12:04;;;;;;;8.3;3.7;;;;;;;6.55;88.53125;942.3203;;;;
2019/09/21 05:14:33;;;;;;;10.4;3.7;;;;;;;6.48;89.43262;942.2516;;;;
2019/09/21 05:16:57;;;;;;;7;4;;;;;;;6.82;89.32324;942.2469;;;;
2019/09/21 05:19:29;;;;;;;6.9;3.5;;;;;;;7.18;87.86719;942.2051;;;;
2019/09/21 05:21:59;;;;;;;8.3;3.9;;;;;;;7.4;86.7002;942.2291;;;;
2019/09/21 05:24:27;;;;;;;7.8;3.6;;;;;;;7.57;85.41016;942.2531;;;;
2019/09/21 05:26:52;;;;;;;8.3;3.5;;;;;;;7.68;85.06641;942.2118;;;;
2019/09/21 05:29:23;;;;;;;8.2;4.1;;;;;;;7.43;85.70801;942.2698;;;;
2019/09/21 05:32:05;;;;;;;6.4;3.6;;;;;;;7.63;85.35254;942.1696;;;;
2019/09/21 05:34:38;;;;;;;8.3;3.8;;;;;;;7.54;84.83398;942.2537;;;;
2019/09/21 05:37:13;;;;;;;9.6;3.4;;;;;;;7.58;84.46875;942.2542;;;;
2019/09/21 05:39:42;;;;;;;7.6;3.4;;;;;;;7.79;83.60156;942.1602;;;;
2019/09/21 05:42:05;;;;;;;9.5;4.4;;;;;;;7.88;83.21289;942.2523;;;;
2019/09/21 05:44:31;;;;;;;9.6;4.1;;;;;;;7.79;83.47754;942.2552;;;;
2019/09/21 05:47:24;;;;;;;8.4;3.8;;;;;;;7.54;85.21973;942.2586;;;;
2019/09/21 05:49:26;;;;;;;7.4;4;;;;;;;7.15;87.43066;942.2717;;;;
2019/09/21 05:52:05;;;;;;;8.4;3.8;;;;;;;7.23;87.51758;942.2324;;;;
2019/09/21 05:54:29;;;;;;;7.6;3.5;;;;;;;7.27;88.05664;942.2636;;;;
2019/09/21 05:57:03;;;;;;;9.6;3.4;;;;;;;7.59;86.98926;942.1855;;;;
2019/09/21 05:59:34;;;;;;;9.1;3.6;;;;;;;8.12;85.2207;942.3085;;;;
2019/09/21 06:02:07;;;;;;;9.7;3.5;;;;;;;8.57;83.41406;942.36;;;;
2019/09/21 06:04:36;;;;;;;6;3.2;;;;;;;8.81;82.15137;942.2645;;;;
2019/09/21 06:07:19;;;;;;;8.6;3.4;;;;;;;9.01;81.18848;942.3876;;;;
2019/09/21 06:09:49;;;;;;;7.6;3.3;;;;;;;9.13;80.66602;942.356;;;;
2019/09/21 06:12:15;;;;;;;9.2;3.3;;;;;;;9.34;79.55469;942.3766;;;;
2019/09/21 06:14:48;;;;;;;8.2;3;;;;;;;9.71;78.24414;942.3789;;;;
2019/09/21 06:17:13;;;;;;;7.7;2.9;;;;;;;9.68;78.41992;942.4156;;;;
2019/09/21 06:19:42;;;;;;;7.8;3.3;;;;;;;9.77;77.75195;942.3951;;;;
2019/09/21 06:22:04;;;;;;;7.1;3.3;;;;;;;9.95;77.91016;942.4417;;;;
2019/09/21 06:24:37;;;;;;;7.9;3.8;;;;;;;10;77.29297;942.4658;;;;
2019/09/21 06:27:04;;;;;;;16.8;9.1;;;;;;;9.78;79.12207;942.3769;;;;
2019/09/21 06:29:33;;;;;;;7.3;3.6;;;;;;;10.13;78.31934;942.4444;;;;
2019/09/21 06:31:59;;;;;;;8.1;3.6;;;;;;;10.31;77.30176;942.3702;;;;
2019/09/21 06:34:28;;;;;;;7.7;3.5;;;;;;;10.49;77.11719;942.528;;;;
2019/09/21 06:37:02;;;;;;;6.4;3.2;;;;;;;10.74;76.5918;942.5281;;;;
2019/09/21 06:39:33;;;;;;;7.1;3.4;;;;;;;10.65;76.58691;942.5411;;;;
2019/09/21 06:42:17;;;;;;;6.9;3.1;;;;;;;10.97;75.94531;942.5821;;;;
2019/09/21 06:44:42;;;;;;;5.9;2.9;;;;;;;11.48;74.34277;942.4695;;;;
2019/09/21 06:47:12;;;;;;;6.9;2.6;;;;;;;11.69;73.85156;942.4756;;;;
2019/09/21 06:50:17;;;;;;;9.6;3;;;;;;;11.87;73.12598;942.4575;;;;
2019/09/21 06:52:48;;;;;;;6.2;2.7;;;;;;;11.66;72.54004;942.437;;;;
2019/09/21 06:55:21;;;;;;;10.5;3.3;;;;;;;11.76;72.47656;942.4333;;;;
2019/09/21 06:57:49;;;;;;;6.3;2.8;;;;;;;12.06;71.66895;942.459;;;;
2019/09/21 07:00:24;;;;;;;6.5;2.9;;;;;;;12.41;70.28223;942.438;;;;
2019/09/21 07:02:53;;;;;;;8.3;2.7;;;;;;;12.46;69.68262;942.4523;;;;
2019/09/21 07:05:22;;;;;;;5.2;2.8;;;;;;;12.79;68.8418;942.5208;;;;
2019/09/21 07:07:48;;;;;;;9.4;3.6;;;;;;;13;68.44824;942.4738;;;;
2019/09/21 07:10:19;;;;;;;7;3.1;;;;;;;13.44;67.62109;942.4361;;;;
2019/09/21 07:12:46;;;;;;;5.4;2.9;;;;;;;13.84;65.98145;942.424;;;;
2019/09/21 07:15:12;;;;;;;7.1;3;;;;;;;13.59;66.12598;942.4064;;;;
2019/09/21 07:17:41;;;;;;;7.3;2.9;;;;;;;14.35;63.95996;942.401;;;;
2019/09/21 07:20:08;;;;;;;8.7;3.7;;;;;;;15.31;60.89258;942.3063;;;;
2019/09/21 07:23:15;;;;;;;8.8;3.8;;;;;;;15.99;58.94043;942.329;;;;
2019/09/21 07:25:26;;;;;;;9.6;4.5;;;;;;;17.15;54.78516;942.3358;;;;
2019/09/21 07:28:11;;;;;;;8.5;4;;;;;;;17.99;53.00684;942.2975;;;;
2019/09/21 07:30:40;;;;;;;7.1;2.4;;;;;;;18.39;49.55664;942.3095;;;;
2019/09/21 07:33:11;;;;;;;8;2.6;;;;;;;20.19;46.74805;942.2633;;;;
2019/09/21 07:35:34;;;;;;;3.6;1.9;;;;;;;20.8;43.75;942.2566;;;;
2019/09/21 07:38:02;;;;;;;4.2;1.8;;;;;;;21.99;42.35645;942.2073;;;;
2019/09/21 07:40:30;;;;;;;4.9;1.6;;;;;;;23.36;39.39453;942.1465;;;;
2019/09/21 07:43:14;;;;;;;5.7;1.9;;;;;;;23.94;38.18652;942.1428;;;;
2019/09/21 07:45:30;;;;;;;3.4;1.7;;;;;;;24.95;34.45117;942.1135;;;;
2019/09/21 07:48:01;;;;;;;4.3;1.8;;;;;;;25.33;33.65332;942.1411;;;;
2019/09/21 07:51:16;;;;;;;5.2;2;;;;;;;24.56;35.91797;942.1434;;;;
2019/09/21 07:57:11;;;;;;;4.8;1.9;;;;;;;24.09;35.53809;942.0222;;;;
2019/09/21 07:59:58;;;;;;;5;1.6;;;;;;;24.72;35.87109;942.0228;;;;
2019/09/21 08:02:18;;;;;;;4.9;1.8;;;;;;;24.86;33.57031;941.976;;;;
2019/09/21 08:04:48;;;;;;;4.3;1.7;;;;;;;24.53;35.53809;941.9655;;;;
2019/09/21 08:07:16;;;;;;;2.6;1.5;;;;;;;24.78;33.57617;941.918;;;;
2019/09/21 08:10:19;;;;;;;3.1;1.8;;;;;;;25.31;35.34082;941.9053;;;;
2019/09/21 08:12:42;;;;;;;4.2;1.7;;;;;;;26.62;32.3291;941.8864;;;;
2019/09/21 08:15:17;;;;;;;6.1;1.9;;;;;;;27.63;31.41699;941.7988;;;;
2019/09/21 08:17:47;;;;;;;5.5;1.7;;;;;;;27.99;29.80273;941.7683;;;;
2019/09/21 08:20:21;;;;;;;3;1.6;;;;;;;27.92;29.01367;941.7238;;;;
2019/09/21 08:22:52;;;;;;;5.1;1.6;;;;;;;27.18;30.02246;941.7197;;;;
2019/09/21 08:25:15;;;;;;;2.7;1.5;;;;;;;28.03;29.87695;941.6786;;;;
2019/09/21 08:27:48;;;;;;;3.4;1.7;;;;;;;28.31;28.68262;941.6881;;;;
2019/09/21 08:30:13;;;;;;;4;1.7;;;;;;;28.51;29.81348;941.6933;;;;
2019/09/21 08:32:43;;;;;;;3.7;1.8;;;;;;;28.83;28.62012;941.7145;;;;
2019/09/21 08:35:09;;;;;;;2.8;1.5;;;;;;;27.98;28.81641;941.6478;;;;
2019/09/21 08:39:23;;;;;;;4.3;1.8;;;;;;;26.47;30.74414;941.6035;;;;
2019/09/21 08:41:54;;;;;;;3.4;1.6;;;;;;;26.09;31.36816;941.6414;;;;
2019/09/21 08:45:16;;;;;;;3.4;1.5;;;;;;;25.88;32.97363;941.6437;;;;
2019/09/21 08:47:40;;;;;;;5.3;1.6;;;;;;;26.5;34.2627;941.6328;;;;
2019/09/21 08:50:17;;;;;;;5.5;1.6;;;;;;;27.25;32.64746;941.6245;;;;
2019/09/21 08:52:46;;;;;;;4;1.7;;;;;;;26.48;32.23633;941.6119;;;;
2019/09/21 08:55:10;;;;;;;3.7;1.4;;;;;;;26.34;33.20898;941.6294;;;;
2019/09/21 08:57:45;;;;;;;3.9;1.5;;;;;;;25.97;34.55273;941.6636;;;;
2019/09/21 09:00:23;;;;;;;4.1;1.8;;;;;;;25.58;40.07617;941.6113;;;;
2019/09/21 09:02:49;;;;;;;6.1;1.9;;;;;;;26.06;38.20215;941.5798;;;;
2019/09/21 09:05:13;;;;;;;4.2;1.9;;;;;;;25.81;37.73242;941.5519;;;;
2019/09/21 09:07:47;;;;;;;6.9;1.9;;;;;;;25.74;39.13281;941.5094;;;;
2019/09/21 09:10:19;;;;;;;4;2;;;;;;;25.87;38.29297;941.468;;;;
2019/09/21 09:12:57;;;;;;;5.8;2.1;;;;;;;25.63;38.63867;941.4396;;;;
2019/09/21 09:15:30;;;;;;;5.5;1.8;;;;;;;25.49;39.39355;941.4025;;;;
2019/09/21 09:17:59;;;;;;;5;2;;;;;;;24.84;40.84668;941.4255;;;;
2019/09/21 09:20:30;;;;;;;6.2;1.9;;;;;;;24.52;41.68945;941.3823;;;;
2019/09/21 09:23:03;;;;;;;5.1;1.8;;;;;;;24.1;41.07422;941.4526;;;;
2019/09/21 09:25:52;;;;;;;4.1;2.1;;;;;;;23.62;42.85352;941.415;;;;
2019/09/21 09:28:06;;;;;;;4.1;1.8;;;;;;;23.15;43.7002;941.4381;;;;
2019/09/21 09:30:30;;;;;;;5.6;1.9;;;;;;;22.7;43.08203;941.448;;;;
2019/09/21 09:33:01;;;;;;;8.8;2;;;;;;;22.3;47.04199;941.448;;;;
2019/09/21 09:35:34;;;;;;;4.3;2;;;;;;;22.23;45.05273;941.4631;;;;
2019/09/21 09:38:23;;;;;;;6.2;1.8;;;;;;;21.79;48.62695;941.4295;;;;
2019/09/21 09:40:53;;;;;;;4.4;2;;;;;;;22.04;47.44727;941.4317;;;;
2019/09/21 09:43:29;;;;;;;4.4;1.7;;;;;;;21.93;43.00684;941.4103;;;;
2019/09/21 09:46:25;;;;;;;5.6;1.8;;;;;;;21.83;46.83984;941.3995;;;;
2019/09/21 09:48:52;;;;;;;4.2;1.8;;;;;;;21.61;48.53809;941.3742;;;;
2019/09/21 09:51:23;;;;;;;3.8;1.8;;;;;;;21.59;49.21387;941.3733;;;;
2019/09/21 09:53:56;;;;;;;4;1.7;;;;;;;21.42;49.41895;941.3233;;;;
2019/09/21 09:56:28;;;;;;;4;1.6;;;;;;;21.26;49.90332;941.3106;;;;
2019/09/21 09:59:00;;;;;;;3.5;1.6;;;;;;;21.31;46.49219;941.2617;;;;
2019/09/21 10:01:25;;;;;;;3.4;1.7;;;;;;;21.34;46.83496;941.3084;;;;
2019/09/21 10:03:56;;;;;;;4;1.8;;;;;;;21.33;47.94531;941.3145;;;;
2019/09/21 10:06:30;;;;;;;3.6;1.5;;;;;;;21.51;45.53027;941.309;;;;
2019/09/21 10:08:55;;;;;;;3.8;1.4;;;;;;;21.52;46.02148;941.193;;;;
2019/09/21 10:11:25;;;;;;;5.2;1.8;;;;;;;21.49;43.74902;941.192;;;;
2019/09/21 10:13:49;;;;;;;4.1;1.7;;;;;;;21.38;43.00098;941.1641;;;;
2019/09/21 10:16:17;;;;;;;4.6;1.9;;;;;;;21.44;45.11328;941.2128;;;;
2019/09/21 10:18:45;;;;;;;4.4;1.6;;;;;;;21.51;44.78027;941.1892;;;;
2019/09/21 10:21:15;;;;;;;4.2;1.7;;;;;;;21.53;43.79883;941.1545;;;;
2019/09/21 10:23:57;;;;;;;4.1;1.8;;;;;;;21.55;46.06055;941.1183;;;;
2019/09/21 10:26:17;;;;;;;4.3;1.6;;;;;;;21.39;43.77441;941.0478;;;;
2019/09/21 10:28:49;;;;;;;3.1;1.7;;;;;;;21.28;44.38281;941.0875;;;;
2019/09/21 10:31:16;;;;;;;3.5;1.6;;;;;;;21.5;43.62109;941.0095;;;;
2019/09/21 10:33:42;;;;;;;4.2;1.7;;;;;;;21.76;43.3418;941.0461;;;;
2019/09/21 10:36:15;;;;;;;3.1;1.7;;;;;;;21.98;42.64844;941.0641;;;;
2019/09/21 10:38:45;;;;;;;4.7;2;;;;;;;22.12;44.54883;941.0256;;;;
2019/09/21 10:41:18;;;;;;;5;1.6;;;;;;;22.2;44.80371;940.9763;;;;
2019/09/21 10:43:43;;;;;;;6.7;1.9;;;;;;;22.19;42.03516;941.0325;;;;
2019/09/21 10:46:11;;;;;;;4.6;1.7;;;;;;;22.26;42.80469;941.0248;;;;
2019/09/21 10:48:39;;;;;;;4.4;1.7;;;;;;;22.28;44.29492;940.9675;;;;
2019/09/21 10:51:07;;;;;;;4.4;1.6;;;;;;;22.46;42.95215;941.0033;;;;
2019/09/21 10:53:39;;;;;;;5.7;1.7;;;;;;;22.73;43.00195;940.9581;;;;
2019/09/21 10:56:07;;;;;;;3.9;1.7;;;;;;;23.05;43.04492;941.0322;;;;
2019/09/21 10:58:33;;;;;;;3;1.7;;;;;;;23.08;41.32031;940.9336;;;;
2019/09/21 11:01:09;;;;;;;9.9;1.8;;;;;;;23.43;41.6582;940.9283;;;;
2019/09/21 11:04:13;;;;;;;4.2;1.6;;;;;;;23.97;40.36719;940.8472;;;;
2019/09/21 11:06:28;;;;;;;5.3;1.7;;;;;;;25.08;39.08691;940.7894;;;;
2019/09/21 11:09:06;;;;;;;4.8;1.6;;;;;;;26.16;37.41895;940.7065;;;;
2019/09/21 11:14:28;;;;;;;4.3;1.6;;;;;;;27.59;33.0752;940.7375;;;;
2019/09/21 11:16:56;;;;;;;3.4;1.6;;;;;;;28.89;32.39844;940.6609;;;;
2019/09/21 11:22:03;;;;;;;5.3;1.7;;;;;;;29.42;29.28906;940.5402;;;;
2019/09/21 11:24:29;;;;;;;5.6;1.8;;;;;;;29.93;29.72852;940.5575;;;;
2019/09/21 11:27:00;;;;;;;5;1.5;;;;;;;30.23;27.88574;940.5648;;;;
2019/09/21 11:29:33;;;;;;;3.4;1.6;;;;;;;31.58;28.37598;940.5552;;;;
2019/09/21 11:32:01;;;;;;;4;1.4;;;;;;;31.73;25.75;940.562;;;;
2019/09/21 11:34:28;;;;;;;3.9;1.5;;;;;;;30.9;26.14648;940.4553;;;;
2019/09/21 11:36:56;;;;;;;2.8;1.4;;;;;;;31.36;26.38867;940.4529;;;;
2019/09/21 11:39:27;;;;;;;3.6;1.7;;;;;;;32.61;25.60938;940.4392;;;;
2019/09/21 11:42:10;;;;;;;4.4;1.6;;;;;;;33.37;24.70117;940.3747;;;;
2019/09/21 11:44:34;;;;;;;3.6;1.5;;;;;;;33.23;24.85059;940.3694;;;;
2019/09/21 11:47:07;;;;;;;5.1;1.4;;;;;;;33.86;23.52539;940.3917;;;;
2019/09/21 11:49:42;;;;;;;2.2;1.4;;;;;;;34.2;22.74805;940.3477;;;;
2019/09/21 11:52:02;;;;;;;2.6;1.4;;;;;;;34.64;23.02246;940.3128;;;;
2019/09/21 11:54:26;;;;;;;3.3;1.4;;;;;;;33.89;23.11719;940.2608;;;;
2019/09/21 11:56:55;;;;;;;2.8;1.4;;;;;;;34.75;22.41406;940.2224;;;;
2019/09/21 11:59:24;;;;;;;5.7;1.7;;;;;;;35.27;21.77539;940.2182;;;;
2019/09/21 12:01:52;;;;;;;2.5;1.4;;;;;;;35.87;21.00684;940.2048;;;;
2019/09/21 12:04:26;;;;;;;3.4;1.5;;;;;;;36.77;20.10254;940.222;;;;
2019/09/21 12:06:53;;;;;;;3.1;1.5;;;;;;;37.05;19.82422;940.1863;;;;
2019/09/21 12:09:20;;;;;;;3.2;1.3;;;;;;;37.82;18.75293;940.1096;;;;
2019/09/21 12:11:49;;;;;;;2.8;1.5;;;;;;;38.19;18.05176;940.1119;;;;
2019/09/21 12:14:20;;;;;;;3.8;1.4;;;;;;;36.91;19.59961;940.0884;;;;
2019/09/21 12:16:52;;;;;;;3.7;1.5;;;;;;;37.51;20.51074;940.0025;;;;
2019/09/21 12:19:21;;;;;;;4.4;1.5;;;;;;;37.43;19.62207;940.0353;;;;
2019/09/21 12:21:46;;;;;;;3.4;1.3;;;;;;;37.47;19.39355;939.9802;;;;
2019/09/21 12:24:13;;;;;;;5;1.5;;;;;;;34.55;23.00684;939.9056;;;;
2019/09/21 12:26:46;;;;;;;4.3;1.4;;;;;;;32.22;26.59375;939.9063;;;;
2019/09/21 12:29:05;;;;;;;4;1.5;;;;;;;30.62;28.34082;939.8621;;;;
2019/09/21 12:31:32;;;;;;;4.4;1.7;;;;;;;29.17;29.53516;939.8422;;;;
2019/09/21 12:34:08;;;;;;;4.8;1.8;;;;;;;28.49;31.87012;939.8901;;;;
2019/09/21 12:36:37;;;;;;;2.5;1.6;;;;;;;27.76;33.59863;939.7944;;;;
2019/09/21 12:39:07;;;;;;;3.6;1.6;;;;;;;27.56;34.50879;939.7256;;;;
2019/09/21 12:41:33;;;;;;;5.4;1.8;;;;;;;27.28;35.40039;939.7475;;;;
2019/09/21 12:44:03;;;;;;;5.6;1.7;;;;;;;26.9;36.30664;939.7251;;;;
2019/09/21 12:46:29;;;;;;;3.9;1.7;;;;;;;26.41;35.69922;939.7064;;;;
2019/09/21 12:48:59;;;;;;;3.4;1.6;;;;;;;26.27;35.87793;939.6819;;;;
2019/09/21 12:51:26;;;;;;;3.3;1.7;;;;;;;26.1;35.70996;939.6825;;;;
2019/09/21 12:53:53;;;;;;;4;1.9;;;;;;;26.13;37.45117;939.6305;;;;
2019/09/21 12:56:27;;;;;;;3.9;2;;;;;;;26.26;35.71094;939.6203;;;;
2019/09/21 12:58:50;;;;;;;3.2;1.7;;;;;;;26.14;37.14551;939.5849;;;;
2019/09/21 13:01:15;;;;;;;5.3;1.6;;;;;;;26.06;36.86621;939.5229;;;;
2019/09/21 13:03:47;;;;;;;3;1.5;;;;;;;26.17;37.04102;939.5262;;;;
2019/09/21 13:06:14;;;;;;;3.4;1.5;;;;;;;26;36.49414;939.4841;;;;
2019/09/21 13:08:41;;;;;;;3.1;1.9;;;;;;;26.08;36.54785;939.4037;;;;
2019/09/21 13:11:13;;;;;;;5.8;1.8;;;;;;;25.97;37.27246;939.4158;;;;
2019/09/21 13:13:39;;;;;;;4.2;1.7;;;;;;;26;37.3457;939.3131;;;;
2019/09/21 13:16:07;;;;;;;4.4;1.7;;;;;;;26.07;36.92676;939.3151;;;;
2019/09/21 13:18:36;;;;;;;8.3;1.8;;;;;;;26.07;35.55469;939.2112;;;;
2019/09/21 13:21:02;;;;;;;4;1.7;;;;;;;26.03;37.0293;939.2263;;;;
2019/09/21 13:23:38;;;;;;;4.8;2;;;;;;;25.98;36.64648;939.2938;;;;
2019/09/21 13:26:04;;;;;;;5.3;1.9;;;;;;;25.74;37.22949;939.2352;;;;
2019/09/21 13:28:33;;;;;;;6;2.4;;;;;;;25.83;37.16602;939.1133;;;;
2019/09/21 13:30:58;;;;;;;8.8;3.6;;;;;;;25.9;37.4209;939.1842;;;;
2019/09/21 13:33:30;;;;;;;5.7;2;;;;;;;25.82;38.05176;939.1739;;;;
2019/09/21 13:36:13;;;;;;;4.2;1.7;;;;;;;25.84;37.01367;939.1072;;;;
2019/09/21 13:38:45;;;;;;;3.7;1.6;;;;;;;25.86;37.24023;939.0247;;;;
2019/09/21 13:41:10;;;;;;;6.8;2.9;;;;;;;25.85;37.56934;938.9341;;;;
2019/09/21 13:43:38;;;;;;;4.6;2.4;;;;;;;25.9;38.54297;938.8793;;;;
2019/09/21 13:46:03;;;;;;;4.4;1.8;;;;;;;25.9;38.62695;938.8986;;;;
2019/09/21 13:48:30;;;;;;;5.9;2.2;;;;;;;25.61;38.05859;938.867;;;;
2019/09/21 13:50:57;;;;;;;5.4;1.8;;;;;;;25.68;39.39941;938.8642;;;;
2019/09/21 13:53:23;;;;;;;6.1;3;;;;;;;25.55;38.06445;938.8569;;;;
2019/09/21 13:56:05;;;;;;;6.8;1.9;;;;;;;25.61;38.35352;938.8644;;;;
2019/09/21 14:03:54;;;;;;;5.1;2.2;;;;;;;25.27;38.86719;938.9008;;;;
2019/09/21 14:07:31;;;;;;;10.9;3;;;;;;;25.16;39.83789;938.8914;;;;
2019/09/21 14:10:01;;;;;;;6.3;2.3;;;;;;;25.24;39.51465;938.7936;;;;
2019/09/21 14:12:34;;;;;;;6.5;1.7;;;;;;;25.3;38.77539;938.7813;;;;
2019/09/21 14:15:14;;;;;;;3.9;1.7;;;;;;;25.25;39.81055;938.8444;;;;
2019/09/21 14:17:38;;;;;;;23.2;2.6;;;;;;;25.24;40.18652;938.7645;;;;
2019/09/21 14:20:12;;;;;;;4.4;1.8;;;;;;;25.09;39.85449;938.802;;;;
2019/09/21 14:22:37;;;;;;;3.7;1.9;;;;;;;25.02;39.56543;938.7216;;;;
2019/09/21 14:25:08;;;;;;;5.9;1.6;;;;;;;24.95;40.01953;938.7872;;;;
2019/09/21 14:27:37;;;;;;;6.7;1.9;;;;;;;24.82;41.39941;938.717;;;;
2019/09/21 14:30:01;;;;;;;5.4;1.7;;;;;;;24.71;40.38672;938.6962;;;;
2019/09/21 14:32:38;;;;;;;4.4;1.6;;;;;;;24.53;41.33691;938.7191;;;;
2019/09/21 14:35:11;;;;;;;3.6;1.7;;;;;;;24.47;41.39063;938.6918;;;;
2019/09/21 14:37:41;;;;;;;6.4;1.7;;;;;;;24.3;41.84668;938.6604;;;;
2019/09/21 14:40:15;;;;;;;4.1;1.7;;;;;;;24.45;42.41406;938.6674;;;;
2019/09/21 14:42:49;;;;;;;4.1;1.9;;;;;;;24.33;41.66016;938.6616;;;;
2019/09/21 14:45:16;;;;;;;4.6;1.6;;;;;;;24.25;41.78223;938.6306;;;;
2019/09/21 14:47:47;;;;;;;4.3;1.6;;;;;;;24.18;42.28223;938.6041;;;;
2019/09/21 14:50:15;;;;;;;4.9;1.6;;;;;;;24.18;42.41211;938.5634;;;;
2019/09/21 14:52:38;;;;;;;6.9;2.1;;;;;;;24.18;43.02441;938.5031;;;;
2019/09/21 14:55:18;;;;;;;4.1;1.7;;;;;;;23.8;42.99902;938.4705;;;;
2019/09/21 14:57:42;;;;;;;4.8;1.6;;;;;;;23.74;43.24023;938.4422;;;;
2019/09/21 15:00:08;;;;;;;12.5;1.9;;;;;;;23.86;43.51074;938.4506;;;;
2019/09/21 15:02:40;;;;;;;5.9;1.8;;;;;;;23.9;43.20996;938.4022;;;;
2019/09/21 15:05:15;;;;;;;6.5;1.9;;;;;;;23.89;43.19629;938.4703;;;;
2019/09/21 15:07:33;;;;;;;3;1.6;;;;;;;23.69;43.77734;938.4294;;;;
2019/09/21 15:09:59;;;;;;;5.1;1.9;;;;;;;23.6;44.10938;938.4166;;;;
2019/09/21 15:12:27;;;;;;;4;1.7;;;;;;;23.57;44.74219;938.3911;;;;
2019/09/21 15:14:55;;;;;;;3.3;1.8;;;;;;;23.41;44.125;938.4377;;;;
2019/09/21 15:17:28;;;;;;;4.7;1.6;;;;;;;23.31;44.48047;938.4244;;;;
2019/09/21 15:19:59;;;;;;;3.2;1.7;;;;;;;23.25;45.36719;938.3569;;;;
2019/09/21 15:22:23;;;;;;;3.5;1.7;;;;;;;23.24;45.88477;938.3742;;;;
2019/09/21 15:24:57;;;;;;;4.3;1.8;;;;;;;23.15;45.94434;938.3125;;;;
2019/09/21 15:27:29;;;;;;;4.4;1.8;;;;;;;23.14;46.1084;938.2892;;;;
2019/09/21 15:29:58;;;;;;;3.5;1.6;;;;;;;23.03;45.69727;938.2481;;;;
2019/09/21 15:32:26;;;;;;;5.5;1.6;;;;;;;22.97;46.20801;938.295;;;;
2019/09/21 15:34:55;;;;;;;5;1.7;;;;;;;22.78;45.5791;938.2535;;;;
2019/09/21 15:37:25;;;;;;;3.6;1.8;;;;;;;22.76;45.77539;938.2869;;;;
2019/09/21 15:39:48;;;;;;;5.2;1.9;;;;;;;22.58;46.33203;938.2784;;;;
2019/09/21 15:42:19;;;;;;;4.1;1.7;;;;;;;22.57;46.84766;938.2391;;;;
2019/09/21 15:45:18;;;;;;;4.2;1.8;;;;;;;22.28;46.89941;938.2955;;;;
2019/09/21 15:47:49;;;;;;;6.4;1.9;;;;;;;22.18;46.94629;938.2813;;;;
2019/09/21 15:50:15;;;;;;;5.6;1.6;;;;;;;22.03;47.50488;938.2114;;;;
2019/09/21 15:52:48;;;;;;;5.5;2.1;;;;;;;22.08;47.63867;938.228;;;;
2019/09/21 15:55:13;;;;;;;5.7;2.8;;;;;;;22.02;48.31348;938.2463;;;;
2019/09/21 15:57:40;;;;;;;5.1;2.3;;;;;;;21.86;48.75293;938.2339;;;;
2019/09/21 16:00:12;;;;;;;4.7;1.9;;;;;;;21.8;49.00391;938.187;;;;
2019/09/21 16:02:39;;;;;;;4.4;1.9;;;;;;;21.77;49.375;938.1672;;;;
2019/09/21 16:05:13;;;;;;;6.6;2.5;;;;;;;21.75;49.34961;938.1151;;;;
2019/09/21 16:07:46;;;;;;;6.6;3.4;;;;;;;21.63;49.94629;938.1191;;;;